sensor_id;sensor_type;location;lat;lon;timestamp;pressure;altitude;pressure_sealevel;temperature;humidity
36380;BME280;22411;53.016;18.632;2023-07-20T00:01:15;99993.19;;;16.01;100.00
36380;BME280;22411;53.016;18.632;2023-07-20T00:03:41;99989.91;;;15.99;100.00
36380;BME280;22411;53.016;18.632;2023-07-20T00:06:07;99990.88;;;15.98;100.00
36380;BME280;22411;53.016;18.632;2023-07-20T00:08:33;99989.38;;;15.95;100.00
36380;BME280;22411;53.016;18.632;2023-07-20T00:10:58;99982.38;;;15.96;100.00
36380;BME280;22411;53.016;18.632;2023-07-20T00:13:24;99988.28;;;15.98;100.00
36380;BME280;22411;53.016;18.632;2023-07-20T00:15:51;99981.25;;;15.99;100.00
36380;BME280;22411;53.016;18.632;2023-07-20T00:18:17;99985.34;;;16.01;100.00
36380;BME280;22411;53.016;18.632;2023-07-20T00:20:43;99995.34;;;16.06;100.00
36380;BME280;22411;53.016;18.632;2023-07-20T00:23:08;100002.19;;;16.07;100.00
36380;BME280;22411;53.016;18.632;2023-07-20T00:25:34;99993.53;;;16.06;100.00
36380;BME280;22411;53.016;18.632;2023-07-20T00:28:01;99988.31;;;16.06;100.00
36380;BME280;22411;53.016;18.632;2023-07-20T00:30:27;99991.63;;;16.08;100.00
36380;BME280;22411;53.016;18.632;2023-07-20T00:32:52;99996.16;;;16.06;100.00
36380;BME280;22411;53.016;18.632;2023-07-20T00:35:18;100000.41;;;16.07;100.00
36380;BME280;22411;53.016;18.632;2023-07-20T00:37:44;99994.38;;;16.07;100.00
36380;BME280;22411;53.016;18.632;2023-07-20T00:40:10;99995.03;;;16.09;100.00
36380;BME280;22411;53.016;18.632;2023-07-20T00:42:35;99987.88;;;16.11;100.00
36380;BME280;22411;53.016;18.632;2023-07-20T00:45:01;99981.28;;;16.07;100.00
36380;BME280;22411;53.016;18.632;2023-07-20T00:47:27;99990.13;;;16.06;100.00
36380;BME280;22411;53.016;18.632;2023-07-20T00:49:53;99982.13;;;16.07;100.00
36380;BME280;22411;53.016;18.632;2023-07-20T00:52:21;99985.19;;;16.03;100.00
36380;BME280;22411;53.016;18.632;2023-07-20T00:54:49;99989.47;;;16.04;100.00
36380;BME280;22411;53.016;18.632;2023-07-20T00:57:17;99996.56;;;15.93;100.00
36380;BME280;22411;53.016;18.632;2023-07-20T00:59:43;100001.09;;;15.91;100.00
36380;BME280;22411;53.016;18.632;2023-07-20T01:02:09;99993.72;;;15.87;100.00
36380;BME280;22411;53.016;18.632;2023-07-20T01:04:35;99995.50;;;15.86;100.00
36380;BME280;22411;53.016;18.632;2023-07-20T01:07:23;99999.63;;;15.89;100.00
36380;BME280;22411;53.016;18.632;2023-07-20T01:12:31;99992.41;;;15.83;100.00
36380;BME280;22411;53.016;18.632;2023-07-20T01:14:58;99995.28;;;15.80;100.00
36380;BME280;22411;53.016;18.632;2023-07-20T01:17:24;99989.63;;;15.84;100.00
36380;BME280;22411;53.016;18.632;2023-07-20T01:19:50;99986.19;;;15.84;100.00
36380;BME280;22411;53.016;18.632;2023-07-20T01:28:35;99996.94;;;15.81;100.00
36380;BME280;22411;53.016;18.632;2023-07-20T01:31:21;99983.88;;;15.81;100.00
36380;BME280;22411;53.016;18.632;2023-07-20T01:33:56;99983.88;;;15.81;100.00
36380;BME280;22411;53.016;18.632;2023-07-20T01:36:24;99987.03;;;15.66;100.00
36380;BME280;22411;53.016;18.632;2023-07-20T01:38:51;100000.38;;;15.63;100.00
36380;BME280;22411;53.016;18.632;2023-07-20T01:41:18;99995.63;;;15.49;100.00
36380;BME280;22411;53.016;18.632;2023-07-20T01:43:43;100009.38;;;15.51;100.00
36380;BME280;22411;53.016;18.632;2023-07-20T01:46:09;100011.31;;;15.49;100.00
36380;BME280;22411;53.016;18.632;2023-07-20T01:48:35;100011.31;;;15.49;100.00
36380;BME280;22411;53.016;18.632;2023-07-20T01:51:01;99997.31;;;15.50;100.00
36380;BME280;22411;53.016;18.632;2023-07-20T01:53:27;99998.63;;;15.54;100.00
36380;BME280;22411;53.016;18.632;2023-07-20T01:55:53;100005.66;;;15.54;100.00
36380;BME280;22411;53.016;18.632;2023-07-20T01:58:19;100003.34;;;15.51;100.00
36380;BME280;22411;53.016;18.632;2023-07-20T02:00:46;100003.47;;;15.49;100.00
36380;BME280;22411;53.016;18.632;2023-07-20T02:03:11;100006.09;;;15.49;100.00
36380;BME280;22411;53.016;18.632;2023-07-20T02:05:38;100006.78;;;15.51;100.00
36380;BME280;22411;53.016;18.632;2023-07-20T02:08:03;100005.50;;;15.55;100.00
36380;BME280;22411;53.016;18.632;2023-07-20T02:10:29;100009.44;;;15.59;100.00
36380;BME280;22411;53.016;18.632;2023-07-20T02:12:55;100016.31;;;15.60;100.00
36380;BME280;22411;53.016;18.632;2023-07-20T02:15:21;100010.81;;;15.46;100.00
36380;BME280;22411;53.016;18.632;2023-07-20T02:17:47;100016.16;;;15.44;100.00
36380;BME280;22411;53.016;18.632;2023-07-20T02:20:13;100017.50;;;15.48;100.00
36380;BME280;22411;53.016;18.632;2023-07-20T02:22:39;100016.41;;;15.51;100.00
36380;BME280;22411;53.016;18.632;2023-07-20T02:25:06;100021.31;;;15.54;100.00
36380;BME280;22411;53.016;18.632;2023-07-20T02:27:36;100016.47;;;15.59;100.00
36380;BME280;22411;53.016;18.632;2023-07-20T02:30:03;100016.72;;;15.65;100.00
36380;BME280;22411;53.016;18.632;2023-07-20T02:32:29;100016.44;;;15.68;100.00
36380;BME280;22411;53.016;18.632;2023-07-20T02:34:55;100016.16;;;15.72;100.00
36380;BME280;22411;53.016;18.632;2023-07-20T02:37:21;100023.00;;;15.73;100.00
36380;BME280;22411;53.016;18.632;2023-07-20T02:39:47;100013.38;;;15.73;100.00
36380;BME280;22411;53.016;18.632;2023-07-20T02:42:12;100005.09;;;15.78;100.00
36380;BME280;22411;53.016;18.632;2023-07-20T02:44:38;100006.34;;;15.74;100.00
36380;BME280;22411;53.016;18.632;2023-07-20T02:47:04;100008.97;;;15.74;100.00
36380;BME280;22411;53.016;18.632;2023-07-20T02:49:30;100011.94;;;15.79;100.00
36380;BME280;22411;53.016;18.632;2023-07-20T02:51:58;100018.81;;;15.80;100.00
36380;BME280;22411;53.016;18.632;2023-07-20T02:54:24;100025.19;;;15.77;100.00
36380;BME280;22411;53.016;18.632;2023-07-20T02:56:49;100025.63;;;15.73;100.00
36380;BME280;22411;53.016;18.632;2023-07-20T02:59:15;100012.75;;;15.61;100.00
36380;BME280;22411;53.016;18.632;2023-07-20T03:01:40;100005.03;;;15.60;100.00
36380;BME280;22411;53.016;18.632;2023-07-20T03:04:09;99997.50;;;15.66;100.00
36380;BME280;22411;53.016;18.632;2023-07-20T03:06:37;99998.16;;;15.68;100.00
36380;BME280;22411;53.016;18.632;2023-07-20T03:09:03;100003.22;;;15.70;100.00
36380;BME280;22411;53.016;18.632;2023-07-20T03:11:29;100001.94;;;15.74;100.00
36380;BME280;22411;53.016;18.632;2023-07-20T03:13:55;100003.59;;;15.75;100.00
36380;BME280;22411;53.016;18.632;2023-07-20T03:16:23;100012.94;;;15.78;100.00
36380;BME280;22411;53.016;18.632;2023-07-20T03:18:49;100011.13;;;15.78;100.00
36380;BME280;22411;53.016;18.632;2023-07-20T03:21:14;100009.50;;;15.77;100.00
36380;BME280;22411;53.016;18.632;2023-07-20T03:23:41;100018.97;;;15.78;100.00
36380;BME280;22411;53.016;18.632;2023-07-20T03:26:06;100022.25;;;15.80;100.00
36380;BME280;22411;53.016;18.632;2023-07-20T03:28:35;100023.81;;;15.73;100.00
36380;BME280;22411;53.016;18.632;2023-07-20T03:31:00;100021.59;;;15.78;100.00
36380;BME280;22411;53.016;18.632;2023-07-20T03:33:28;100023.75;;;15.83;100.00
36380;BME280;22411;53.016;18.632;2023-07-20T03:35:55;100032.25;;;15.85;100.00
36380;BME280;22411;53.016;18.632;2023-07-20T03:38:22;100029.34;;;15.88;100.00
36380;BME280;22411;53.016;18.632;2023-07-20T03:40:51;100028.38;;;15.89;100.00
36380;BME280;22411;53.016;18.632;2023-07-20T03:43:17;100028.91;;;15.92;100.00
36380;BME280;22411;53.016;18.632;2023-07-20T03:45:43;100026.13;;;15.94;100.00
36380;BME280;22411;53.016;18.632;2023-07-20T03:48:09;100024.50;;;15.93;100.00
36380;BME280;22411;53.016;18.632;2023-07-20T03:50:34;100022.38;;;15.97;100.00
36380;BME280;22411;53.016;18.632;2023-07-20T03:53:00;100019.47;;;16.00;100.00
36380;BME280;22411;53.016;18.632;2023-07-20T03:55:26;100027.31;;;16.00;100.00
36380;BME280;22411;53.016;18.632;2023-07-20T03:57:52;100029.25;;;15.98;100.00
36380;BME280;22411;53.016;18.632;2023-07-20T04:00:17;100035.31;;;15.98;100.00
36380;BME280;22411;53.016;18.632;2023-07-20T04:02:43;100036.25;;;15.97;100.00
36380;BME280;22411;53.016;18.632;2023-07-20T04:05:09;100033.38;;;16.00;100.00
36380;BME280;22411;53.016;18.632;2023-07-20T04:07:35;100027.84;;;16.03;100.00
36380;BME280;22411;53.016;18.632;2023-07-20T04:10:01;100034.56;;;16.06;100.00
36380;BME280;22411;53.016;18.632;2023-07-20T04:12:26;100033.19;;;16.02;100.00
36380;BME280;22411;53.016;18.632;2023-07-20T04:14:52;100034.19;;;16.01;100.00
36380;BME280;22411;53.016;18.632;2023-07-20T04:17:18;100025.53;;;16.00;100.00
36380;BME280;22411;53.016;18.632;2023-07-20T04:19:43;100024.53;;;16.01;100.00
36380;BME280;22411;53.016;18.632;2023-07-20T04:22:10;100023.44;;;16.04;100.00
36380;BME280;22411;53.016;18.632;2023-07-20T04:24:35;100014.63;;;16.05;100.00
36380;BME280;22411;53.016;18.632;2023-07-20T04:27:01;100024.63;;;16.09;100.00
36380;BME280;22411;53.016;18.632;2023-07-20T04:29:27;100021.31;;;16.07;100.00
36380;BME280;22411;53.016;18.632;2023-07-20T04:31:52;100032.59;;;16.08;100.00
36380;BME280;22411;53.016;18.632;2023-07-20T04:34:18;100030.81;;;16.08;100.00
36380;BME280;22411;53.016;18.632;2023-07-20T04:36:44;100027.69;;;16.05;100.00
36380;BME280;22411;53.016;18.632;2023-07-20T04:39:10;100018.13;;;15.95;100.00
36380;BME280;22411;53.016;18.632;2023-07-20T04:41:36;100027.75;;;15.95;100.00
36380;BME280;22411;53.016;18.632;2023-07-20T04:44:01;100024.00;;;15.98;100.00
36380;BME280;22411;53.016;18.632;2023-07-20T04:46:27;100027.97;;;16.02;100.00
36380;BME280;22411;53.016;18.632;2023-07-20T04:48:53;100031.28;;;16.04;100.00
36380;BME280;22411;53.016;18.632;2023-07-20T04:51:18;100038.81;;;16.07;100.00
36380;BME280;22411;53.016;18.632;2023-07-20T04:53:47;100037.53;;;16.11;100.00
36380;BME280;22411;53.016;18.632;2023-07-20T04:56:13;100037.72;;;16.17;100.00
36380;BME280;22411;53.016;18.632;2023-07-20T04:58:39;100031.91;;;16.24;100.00
36380;BME280;22411;53.016;18.632;2023-07-20T05:01:05;100035.69;;;16.29;100.00
36380;BME280;22411;53.016;18.632;2023-07-20T05:03:30;100044.06;;;16.33;100.00
36380;BME280;22411;53.016;18.632;2023-07-20T05:05:57;100041.97;;;16.36;100.00
36380;BME280;22411;53.016;18.632;2023-07-20T05:08:22;100040.00;;;16.38;100.00
36380;BME280;22411;53.016;18.632;2023-07-20T05:10:48;100044.13;;;16.41;100.00
36380;BME280;22411;53.016;18.632;2023-07-20T05:13:14;100046.75;;;16.41;100.00
36380;BME280;22411;53.016;18.632;2023-07-20T05:15:40;100049.03;;;16.44;100.00
36380;BME280;22411;53.016;18.632;2023-07-20T05:18:05;100044.50;;;16.46;100.00
36380;BME280;22411;53.016;18.632;2023-07-20T05:20:31;100047.91;;;16.46;100.00
36380;BME280;22411;53.016;18.632;2023-07-20T05:22:59;100052.34;;;16.46;100.00
36380;BME280;22411;53.016;18.632;2023-07-20T05:25:25;100047.41;;;16.43;100.00
36380;BME280;22411;53.016;18.632;2023-07-20T05:27:51;100050.47;;;16.38;100.00
36380;BME280;22411;53.016;18.632;2023-07-20T05:30:18;100051.38;;;16.29;100.00
36380;BME280;22411;53.016;18.632;2023-07-20T05:32:44;100041.28;;;16.08;100.00
36380;BME280;22411;53.016;18.632;2023-07-20T05:35:19;100047.41;;;15.99;100.00
36380;BME280;22411;53.016;18.632;2023-07-20T05:37:45;100043.59;;;15.93;100.00
36380;BME280;22411;53.016;18.632;2023-07-20T05:40:12;100047.69;;;15.96;100.00
36380;BME280;22411;53.016;18.632;2023-07-20T05:42:40;100045.16;;;16.04;100.00
36380;BME280;22411;53.016;18.632;2023-07-20T05:45:06;100051.88;;;16.25;100.00
36380;BME280;22411;53.016;18.632;2023-07-20T05:47:32;100051.16;;;16.40;100.00
36380;BME280;22411;53.016;18.632;2023-07-20T05:49:58;100053.06;;;16.56;100.00
36380;BME280;22411;53.016;18.632;2023-07-20T05:52:24;100050.00;;;16.69;100.00
36380;BME280;22411;53.016;18.632;2023-07-20T05:54:49;100050.91;;;16.78;100.00
36380;BME280;22411;53.016;18.632;2023-07-20T05:57:15;100042.09;;;16.87;100.00
36380;BME280;22411;53.016;18.632;2023-07-20T05:59:41;100045.69;;;16.78;100.00
36380;BME280;22411;53.016;18.632;2023-07-20T06:02:09;100046.34;;;16.80;100.00
36380;BME280;22411;53.016;18.632;2023-07-20T06:04:35;100048.69;;;16.91;100.00
36380;BME280;22411;53.016;18.632;2023-07-20T06:07:01;100050.06;;;17.03;100.00
36380;BME280;22411;53.016;18.632;2023-07-20T06:09:27;100041.72;;;17.08;100.00
36380;BME280;22411;53.016;18.632;2023-07-20T06:11:53;100044.38;;;17.16;100.00
36380;BME280;22411;53.016;18.632;2023-07-20T06:14:19;100048.16;;;17.21;100.00
36380;BME280;22411;53.016;18.632;2023-07-20T06:16:45;100045.59;;;17.38;100.00
36380;BME280;22411;53.016;18.632;2023-07-20T06:19:11;100047.59;;;17.52;100.00
36380;BME280;22411;53.016;18.632;2023-07-20T06:21:38;100048.59;;;17.67;100.00
36380;BME280;22411;53.016;18.632;2023-07-20T06:24:03;100053.06;;;17.75;100.00
36380;BME280;22411;53.016;18.632;2023-07-20T06:26:29;100057.16;;;17.77;100.00
36380;BME280;22411;53.016;18.632;2023-07-20T06:28:56;100054.97;;;17.65;100.00
36380;BME280;22411;53.016;18.632;2023-07-20T06:31:21;100056.78;;;17.64;100.00
36380;BME280;22411;53.016;18.632;2023-07-20T06:33:47;100058.13;;;17.76;100.00
36380;BME280;22411;53.016;18.632;2023-07-20T06:36:13;100061.91;;;17.90;100.00
36380;BME280;22411;53.016;18.632;2023-07-20T06:38:39;100057.84;;;18.04;100.00
36380;BME280;22411;53.016;18.632;2023-07-20T06:41:05;100064.22;;;18.01;100.00
36380;BME280;22411;53.016;18.632;2023-07-20T06:43:31;100070.94;;;17.88;100.00
36380;BME280;22411;53.016;18.632;2023-07-20T06:45:56;100062.41;;;17.77;100.00
36380;BME280;22411;53.016;18.632;2023-07-20T06:48:22;100072.22;;;17.92;100.00
36380;BME280;22411;53.016;18.632;2023-07-20T06:50:48;100062.88;;;17.97;100.00
36380;BME280;22411;53.016;18.632;2023-07-20T06:53:13;100074.69;;;18.01;100.00
36380;BME280;22411;53.016;18.632;2023-07-20T06:55:39;100081.75;;;17.93;100.00
36380;BME280;22411;53.016;18.632;2023-07-20T06:58:07;100074.03;;;17.91;100.00
36380;BME280;22411;53.016;18.632;2023-07-20T07:00:32;100077.00;;;17.88;100.00
36380;BME280;22411;53.016;18.632;2023-07-20T07:02:58;100077.31;;;17.77;100.00
36380;BME280;22411;53.016;18.632;2023-07-20T07:05:24;100076.00;;;17.73;100.00
36380;BME280;22411;53.016;18.632;2023-07-20T07:07:50;100078.78;;;17.80;100.00
36380;BME280;22411;53.016;18.632;2023-07-20T07:10:15;100077.00;;;17.88;100.00
36380;BME280;22411;53.016;18.632;2023-07-20T07:12:41;100073.22;;;17.91;100.00
36380;BME280;22411;53.016;18.632;2023-07-20T07:15:07;100079.16;;;18.09;100.00
36380;BME280;22411;53.016;18.632;2023-07-20T07:17:33;100071.41;;;18.24;100.00
36380;BME280;22411;53.016;18.632;2023-07-20T07:19:58;100072.25;;;18.41;100.00
36380;BME280;22411;53.016;18.632;2023-07-20T07:22:24;100075.31;;;18.61;100.00
36380;BME280;22411;53.016;18.632;2023-07-20T07:24:50;100074.53;;;18.68;100.00
36380;BME280;22411;53.016;18.632;2023-07-20T07:27:16;100083.84;;;18.79;100.00
36380;BME280;22411;53.016;18.632;2023-07-20T07:29:42;100070.50;;;18.97;100.00
36380;BME280;22411;53.016;18.632;2023-07-20T07:32:12;100076.97;;;19.17;100.00
36380;BME280;22411;53.016;18.632;2023-07-20T07:34:38;100078.38;;;19.36;100.00
36380;BME280;22411;53.016;18.632;2023-07-20T07:37:04;100070.44;;;19.44;100.00
36380;BME280;22411;53.016;18.632;2023-07-20T07:39:30;100081.44;;;19.48;100.00
36380;BME280;22411;53.016;18.632;2023-07-20T07:41:56;100080.41;;;19.57;100.00
36380;BME280;22411;53.016;18.632;2023-07-20T07:44:22;100077.63;;;19.50;100.00
36380;BME280;22411;53.016;18.632;2023-07-20T07:46:48;100077.75;;;19.65;100.00
36380;BME280;22411;53.016;18.632;2023-07-20T07:49:14;100080.03;;;19.91;100.00
36380;BME280;22411;53.016;18.632;2023-07-20T07:51:40;100083.03;;;20.11;100.00
36380;BME280;22411;53.016;18.632;2023-07-20T07:54:06;100082.78;;;19.98;100.00
36380;BME280;22411;53.016;18.632;2023-07-20T07:56:32;100090.38;;;19.93;100.00
36380;BME280;22411;53.016;18.632;2023-07-20T07:58:57;100083.72;;;19.82;100.00
36380;BME280;22411;53.016;18.632;2023-07-20T08:01:23;100091.09;;;19.87;100.00
36380;BME280;22411;53.016;18.632;2023-07-20T08:03:49;100093.47;;;19.96;100.00
36380;BME280;22411;53.016;18.632;2023-07-20T08:06:15;100087.28;;;20.12;100.00
36380;BME280;22411;53.016;18.632;2023-07-20T08:08:40;100091.09;;;20.09;100.00
36380;BME280;22411;53.016;18.632;2023-07-20T08:11:06;100097.75;;;20.20;100.00
36380;BME280;22411;53.016;18.632;2023-07-20T08:13:32;100099.72;;;20.18;100.00
36380;BME280;22411;53.016;18.632;2023-07-20T08:15:58;100103.59;;;20.07;100.00
36380;BME280;22411;53.016;18.632;2023-07-20T08:18:24;100096.47;;;19.93;100.00
36380;BME280;22411;53.016;18.632;2023-07-20T08:20:50;100089.16;;;20.03;100.00
36380;BME280;22411;53.016;18.632;2023-07-20T08:23:16;100094.34;;;20.11;100.00
36380;BME280;22411;53.016;18.632;2023-07-20T08:25:42;100088.84;;;20.21;100.00
36380;BME280;22411;53.016;18.632;2023-07-20T08:28:11;100087.81;;;20.30;100.00
36380;BME280;22411;53.016;18.632;2023-07-20T08:30:44;100079.06;;;20.30;100.00
36380;BME280;22411;53.016;18.632;2023-07-20T08:33:12;100085.16;;;20.30;100.00
36380;BME280;22411;53.016;18.632;2023-07-20T08:35:38;100082.81;;;20.35;100.00
36380;BME280;22411;53.016;18.632;2023-07-20T08:38:03;100078.34;;;20.59;100.00
36380;BME280;22411;53.016;18.632;2023-07-20T08:40:31;100081.59;;;20.61;100.00
36380;BME280;22411;53.016;18.632;2023-07-20T08:42:59;100079.09;;;20.68;100.00
36380;BME280;22411;53.016;18.632;2023-07-20T08:45:27;100080.34;;;20.72;100.00
36380;BME280;22411;53.016;18.632;2023-07-20T08:47:55;100085.06;;;20.76;100.00
36380;BME280;22411;53.016;18.632;2023-07-20T08:50:22;100085.06;;;20.76;100.00
36380;BME280;22411;53.016;18.632;2023-07-20T08:52:50;100074.19;;;20.79;100.00
36380;BME280;22411;53.016;18.632;2023-07-20T08:55:20;100067.53;;;20.54;100.00
36380;BME280;22411;53.016;18.632;2023-07-20T08:57:46;100059.94;;;20.36;100.00
36380;BME280;22411;53.016;18.632;2023-07-20T09:00:13;100070.28;;;20.00;100.00
36380;BME280;22411;53.016;18.632;2023-07-20T09:02:39;100068.28;;;20.02;100.00
36380;BME280;22411;53.016;18.632;2023-07-20T09:05:08;100063.91;;;19.94;100.00
36380;BME280;22411;53.016;18.632;2023-07-20T09:07:39;100072.22;;;19.83;100.00
36380;BME280;22411;53.016;18.632;2023-07-20T09:10:05;100065.47;;;19.57;100.00
36380;BME280;22411;53.016;18.632;2023-07-20T09:12:34;100067.34;;;19.72;100.00
36380;BME280;22411;53.016;18.632;2023-07-20T09:15:01;100070.06;;;20.24;100.00
36380;BME280;22411;53.016;18.632;2023-07-20T09:17:26;100072.28;;;20.73;100.00
36380;BME280;22411;53.016;18.632;2023-07-20T09:19:52;100086.25;;;21.03;100.00
36380;BME280;22411;53.016;18.632;2023-07-20T09:22:18;100069.91;;;20.63;100.00
36380;BME280;22411;53.016;18.632;2023-07-20T09:24:44;100065.94;;;20.45;100.00
36380;BME280;22411;53.016;18.632;2023-07-20T09:27:10;100080.72;;;20.46;100.00
36380;BME280;22411;53.016;18.632;2023-07-20T09:29:49;100069.25;;;20.61;100.00
36380;BME280;22411;53.016;18.632;2023-07-20T09:32:19;100070.38;;;20.67;100.00
36380;BME280;22411;53.016;18.632;2023-07-20T09:34:51;100073.25;;;20.87;100.00
36380;BME280;22411;53.016;18.632;2023-07-20T09:37:23;100076.25;;;20.69;100.00
36380;BME280;22411;53.016;18.632;2023-07-20T09:39:53;100080.19;;;20.73;100.00
36380;BME280;22411;53.016;18.632;2023-07-20T09:42:22;100080.72;;;20.83;100.00
36380;BME280;22411;53.016;18.632;2023-07-20T09:44:50;100074.91;;;20.73;100.00
36380;BME280;22411;53.016;18.632;2023-07-20T09:47:23;100081.09;;;20.95;100.00
36380;BME280;22411;53.016;18.632;2023-07-20T09:49:49;100080.97;;;21.18;100.00
36380;BME280;22411;53.016;18.632;2023-07-20T09:52:20;100078.06;;;20.98;100.00
36380;BME280;22411;53.016;18.632;2023-07-20T09:54:47;100078.06;;;20.98;100.00
36380;BME280;22411;53.016;18.632;2023-07-20T09:57:12;100067.91;;;21.61;100.00
36380;BME280;22411;53.016;18.632;2023-07-20T09:59:40;100071.41;;;21.47;100.00
36380;BME280;22411;53.016;18.632;2023-07-20T10:02:20;100059.34;;;21.23;100.00
36380;BME280;22411;53.016;18.632;2023-07-20T10:04:47;100079.06;;;21.27;100.00
36380;BME280;22411;53.016;18.632;2023-07-20T10:07:14;100072.50;;;21.52;100.00
36380;BME280;22411;53.016;18.632;2023-07-20T10:09:42;100071.22;;;22.34;100.00
36380;BME280;22411;53.016;18.632;2023-07-20T10:12:09;100066.84;;;22.82;100.00
36380;BME280;22411;53.016;18.632;2023-07-20T10:14:41;100062.69;;;23.56;100.00
36380;BME280;22411;53.016;18.632;2023-07-20T10:17:11;100063.59;;;23.69;100.00
36380;BME280;22411;53.016;18.632;2023-07-20T10:19:47;100069.28;;;23.12;100.00
36380;BME280;22411;53.016;18.632;2023-07-20T10:22:19;100068.00;;;22.94;100.00
36380;BME280;22411;53.016;18.632;2023-07-20T10:24:46;100065.03;;;23.24;100.00
36380;BME280;22411;53.016;18.632;2023-07-20T10:27:13;100057.97;;;23.31;100.00
36380;BME280;22411;53.016;18.632;2023-07-20T10:29:40;100058.72;;;23.18;100.00
36380;BME280;22411;53.016;18.632;2023-07-20T10:32:07;100051.59;;;23.12;100.00
36380;BME280;22411;53.016;18.632;2023-07-20T10:34:33;100051.09;;;23.50;100.00
36380;BME280;22411;53.016;18.632;2023-07-20T10:36:59;100045.50;;;24.13;91.23
36380;BME280;22411;53.016;18.632;2023-07-20T10:39:26;100050.41;;;23.89;91.51
36380;BME280;22411;53.016;18.632;2023-07-20T10:42:03;100038.16;;;24.35;85.41
36380;BME280;22411;53.016;18.632;2023-07-20T10:44:32;100029.25;;;25.07;88.91
36380;BME280;22411;53.016;18.632;2023-07-20T10:47:02;100042.31;;;25.40;80.70
36380;BME280;22411;53.016;18.632;2023-07-20T10:49:28;100035.09;;;25.22;76.74
36380;BME280;22411;53.016;18.632;2023-07-20T10:51:58;100035.09;;;25.22;82.15
36380;BME280;22411;53.016;18.632;2023-07-20T10:56:50;100025.69;;;25.20;74.67
36380;BME280;22411;53.016;18.632;2023-07-20T10:59:35;100028.94;;;25.28;78.70
36380;BME280;22411;53.016;18.632;2023-07-20T11:02:06;100031.06;;;23.95;82.85
36380;BME280;22411;53.016;18.632;2023-07-20T11:04:43;100019.44;;;24.03;87.34
36380;BME280;22411;53.016;18.632;2023-07-20T11:07:09;100024.31;;;24.46;87.18
36380;BME280;22411;53.016;18.632;2023-07-20T11:09:37;100014.13;;;24.30;80.28
36380;BME280;22411;53.016;18.632;2023-07-20T11:14:43;100020.44;;;23.82;87.20
36380;BME280;22411;53.016;18.632;2023-07-20T11:17:13;100008.25;;;23.68;85.39
36380;BME280;22411;53.016;18.632;2023-07-20T11:19:39;100013.97;;;23.78;89.71
36380;BME280;22411;53.016;18.632;2023-07-20T11:22:06;100006.44;;;23.95;82.83
36380;BME280;22411;53.016;18.632;2023-07-20T11:24:39;100018.13;;;23.39;82.04
36380;BME280;22411;53.016;18.632;2023-07-20T11:27:05;100015.63;;;23.25;85.20
36380;BME280;22411;53.016;18.632;2023-07-20T11:29:31;100009.28;;;23.06;87.08
36380;BME280;22411;53.016;18.632;2023-07-20T11:31:57;100008.34;;;22.79;88.09
36380;BME280;22411;53.016;18.632;2023-07-20T11:34:24;100006.25;;;22.67;88.53
36380;BME280;22411;53.016;18.632;2023-07-20T11:36:51;100012.75;;;23.06;82.78
36380;BME280;22411;53.016;18.632;2023-07-20T11:39:18;100010.56;;;23.23;81.73
36380;BME280;22411;53.016;18.632;2023-07-20T11:41:52;100014.66;;;23.26;82.35
36380;BME280;22411;53.016;18.632;2023-07-20T11:44:22;99997.13;;;23.25;83.49
36380;BME280;22411;53.016;18.632;2023-07-20T11:47:12;100001.38;;;23.19;86.56
36380;BME280;22411;53.016;18.632;2023-07-20T11:49:41;100005.41;;;23.02;86.25
36380;BME280;22411;53.016;18.632;2023-07-20T11:52:09;99999.22;;;22.47;84.50
36380;BME280;22411;53.016;18.632;2023-07-20T11:54:37;99991.47;;;22.10;87.09
36380;BME280;22411;53.016;18.632;2023-07-20T11:57:03;99996.03;;;22.02;88.59
36380;BME280;22411;53.016;18.632;2023-07-20T11:59:31;99990.41;;;22.33;83.90
36380;BME280;22411;53.016;18.632;2023-07-20T12:01:58;99997.97;;;22.42;83.76
36380;BME280;22411;53.016;18.632;2023-07-20T12:04:26;99993.81;;;22.27;86.28
36380;BME280;22411;53.016;18.632;2023-07-20T12:06:53;99981.00;;;22.58;85.29
36380;BME280;22411;53.016;18.632;2023-07-20T12:09:20;99995.53;;;22.82;83.50
36380;BME280;22411;53.016;18.632;2023-07-20T12:11:49;100010.03;;;22.52;82.31
36380;BME280;22411;53.016;18.632;2023-07-20T12:14:15;100000.38;;;22.37;84.51
36380;BME280;22411;53.016;18.632;2023-07-20T12:16:41;99999.88;;;22.55;83.65
36380;BME280;22411;53.016;18.632;2023-07-20T12:19:09;100001.06;;;23.48;76.20
36380;BME280;22411;53.016;18.632;2023-07-20T12:21:36;100002.94;;;24.08;69.39
36380;BME280;22411;53.016;18.632;2023-07-20T12:24:03;100009.31;;;23.19;73.80
36380;BME280;22411;53.016;18.632;2023-07-20T12:26:30;100010.06;;;22.58;78.52
36380;BME280;22411;53.016;18.632;2023-07-20T12:28:56;100014.59;;;22.36;80.11
36380;BME280;22411;53.016;18.632;2023-07-20T12:31:22;100016.03;;;21.89;92.80
36380;BME280;22411;53.016;18.632;2023-07-20T12:33:50;100019.84;;;20.93;100.00
36380;BME280;22411;53.016;18.632;2023-07-20T12:36:17;100031.00;;;20.36;100.00
36380;BME280;22411;53.016;18.632;2023-07-20T12:38:44;100030.44;;;19.65;100.00
36380;BME280;22411;53.016;18.632;2023-07-20T12:41:10;100009.53;;;18.70;100.00
36380;BME280;22411;53.016;18.632;2023-07-20T12:43:44;100030.59;;;18.29;100.00
36380;BME280;22411;53.016;18.632;2023-07-20T12:46:11;100050.47;;;17.99;100.00